createdAt,value
2018-03-18T00:02:06.409Z,99093.63
2018-03-18T00:04:33.910Z,99100.38
2018-03-18T00:07:01.376Z,99104.98
2018-03-18T00:09:28.867Z,99097.53
2018-03-18T00:11:56.331Z,99095.89
2018-03-18T00:14:23.824Z,99101.61
2018-03-18T00:16:51.283Z,99111.14
2018-03-18T00:19:18.779Z,99100.07
2018-03-18T00:21:46.250Z,99108.78
2018-03-18T00:24:13.975Z,99107.14
2018-03-18T00:26:43.447Z,99107.88
2018-03-18T00:29:12.016Z,99108.38
2018-03-18T00:31:39.509Z,99108.37
2018-03-18T00:34:07.212Z,99110.92
2018-03-18T00:36:34.683Z,99106.85
2018-03-18T00:39:02.340Z,99111.94
2018-03-18T00:41:30.320Z,99110.32
2018-03-18T00:43:57.918Z,99111.66
2018-03-18T00:46:25.430Z,99110.52
2018-03-18T00:48:53.065Z,99114.91
2018-03-18T00:51:33.392Z,99109.70
2018-03-18T00:54:00.932Z,99115.32
2018-03-18T00:56:28.771Z,99116.95
2018-03-18T00:58:56.331Z,99118.39
2018-03-18T01:01:23.848Z,99113.81
2018-03-18T01:03:51.354Z,99121.17
2018-03-18T01:06:18.895Z,99121.16
2018-03-18T01:08:47.254Z,99122.20
2018-03-18T01:11:15.365Z,99111.22
2018-03-18T01:13:43.206Z,99112.88
2018-03-18T01:16:10.776Z,99123.73
2018-03-18T01:18:39.228Z,99119.22
2018-03-18T01:21:06.820Z,99113.61
2018-03-18T01:23:34.283Z,99114.81
2018-03-18T01:26:01.766Z,99121.36
2018-03-18T01:28:29.231Z,99125.25
2018-03-18T01:30:56.739Z,99120.34
2018-03-18T01:33:24.208Z,99121.56
2018-03-18T01:35:51.708Z,99115.84
2018-03-18T01:38:19.183Z,99117.19
2018-03-18T01:40:46.671Z,99107.05
2018-03-18T01:43:14.140Z,99112.77
2018-03-18T01:45:41.628Z,99111.04
2018-03-18T01:48:09.090Z,99115.12
2018-03-18T01:50:36.588Z,99107.05
2018-03-18T01:53:15.908Z,99113.50
2018-03-18T01:55:43.392Z,99106.24
2018-03-18T01:58:10.863Z,99106.23
2018-03-18T02:00:38.358Z,99100.69
2018-03-18T02:03:05.835Z,99098.95
2018-03-18T02:05:33.317Z,99098.46
2018-03-18T02:08:00.839Z,99102.86
2018-03-18T02:10:28.332Z,99093.53
2018-03-18T02:12:55.833Z,99085.55
2018-03-18T02:15:23.298Z,99096.41
2018-03-18T02:17:50.792Z,99094.47
2018-03-18T02:20:18.261Z,99093.86
2018-03-18T02:22:45.755Z,99094.45
2018-03-18T02:25:13.227Z,99086.37
2018-03-18T02:27:40.959Z,99087.91
2018-03-18T02:30:08.438Z,99089.86
2018-03-18T02:32:35.943Z,99086.78
2018-03-18T02:35:04.256Z,99085.77
2018-03-18T02:37:31.747Z,99087.30
2018-03-18T02:39:59.217Z,99088.94
2018-03-18T02:42:26.705Z,99084.64
2018-03-18T02:44:54.179Z,99077.28
2018-03-18T02:47:21.681Z,99071.22
2018-03-18T02:49:49.144Z,99072.02
2018-03-18T02:52:16.640Z,99084.73
2018-03-18T02:54:44.108Z,99076.54
2018-03-18T02:57:11.607Z,99068.36
2018-03-18T02:59:39.071Z,99074.69
2018-03-18T03:02:06.556Z,99074.79
2018-03-18T03:04:34.015Z,99068.96
2018-03-18T03:07:01.475Z,99072.34
2018-03-18T03:09:28.979Z,99075.73
2018-03-18T03:11:56.447Z,99067.23
2018-03-18T03:14:23.931Z,99085.03
2018-03-18T03:16:51.398Z,99080.86
2018-03-18T03:19:18.891Z,99078.90
2018-03-18T03:21:46.359Z,99078.40
2018-03-18T03:24:13.847Z,99085.55
2018-03-18T03:26:41.309Z,99082.79
2018-03-18T03:29:08.792Z,99087.91
2018-03-18T03:31:36.258Z,99084.23
2018-03-18T03:34:03.835Z,99084.21
2018-03-18T03:36:31.298Z,99087.80
2018-03-18T03:38:58.786Z,99082.50
2018-03-18T03:41:26.265Z,99089.55
2018-03-18T03:43:53.751Z,99085.56
2018-03-18T03:46:21.228Z,99090.25
2018-03-18T03:48:48.723Z,99085.25
2018-03-18T03:51:16.195Z,99094.15
2018-03-18T03:53:43.683Z,99089.75
2018-03-18T03:56:11.150Z,99084.93
2018-03-18T03:58:38.650Z,99091.06
2018-03-18T04:01:06.115Z,99095.66
2018-03-18T04:03:33.575Z,99082.98
2018-03-18T04:06:01.058Z,99096.03
2018-03-18T04:08:28.523Z,99098.64
2018-03-18T04:10:56.012Z,99100.84
2018-03-18T04:13:23.482Z,99100.73
2018-03-18T04:15:50.978Z,99102.14
2018-03-18T04:18:18.442Z,99100.27
2018-03-18T04:20:45.937Z,99098.66
2018-03-18T04:23:13.398Z,99105.10
2018-03-18T04:25:40.886Z,99103.70
2018-03-18T04:28:08.350Z,99103.20
2018-03-18T04:30:35.868Z,99106.36
2018-03-18T04:33:03.337Z,99110.30
2018-03-18T04:35:30.833Z,99109.69
2018-03-18T04:37:58.292Z,99108.13
2018-03-18T04:40:25.794Z,99104.55
2018-03-18T04:42:53.256Z,99093.03
2018-03-18T04:45:20.740Z,99109.31
2018-03-18T04:47:48.218Z,99110.52
2018-03-18T04:50:15.704Z,99116.13
2018-03-18T04:52:43.178Z,99114.89
2018-03-18T04:55:10.684Z,99117.23
2018-03-18T04:57:38.150Z,99115.84
2018-03-18T05:00:05.616Z,99109.26
2018-03-18T05:02:33.109Z,99111.98
2018-03-18T05:05:00.587Z,99116.05
2018-03-18T05:07:28.090Z,99115.52
2018-03-18T05:09:55.546Z,99112.91
2018-03-18T05:12:23.031Z,99117.37
2018-03-18T05:14:50.507Z,99117.67
2018-03-18T05:17:18.002Z,99121.53
2018-03-18T05:19:45.470Z,99121.53
2018-03-18T05:22:12.958Z,99120.23
2018-03-18T05:24:40.417Z,99127.79
2018-03-18T05:27:07.902Z,99122.86
2018-03-18T05:29:35.363Z,99129.53
2018-03-18T05:32:02.860Z,99130.20
2018-03-18T05:34:30.328Z,99132.98
2018-03-18T05:36:57.818Z,99137.88
2018-03-18T05:39:25.285Z,99134.57
2018-03-18T05:41:52.802Z,99138.31
2018-03-18T05:44:20.368Z,99145.53
2018-03-18T05:46:47.839Z,99148.93
2018-03-18T05:49:15.339Z,99146.07
2018-03-18T05:51:42.803Z,99153.28
2018-03-18T05:54:10.376Z,99144.30
2018-03-18T05:56:37.853Z,99151.25
2018-03-18T05:59:05.340Z,99159.84
2018-03-18T06:01:32.807Z,99162.34
2018-03-18T06:04:00.291Z,99164.07
2018-03-18T06:06:27.761Z,99167.43
2018-03-18T06:08:55.263Z,99170.37
2018-03-18T06:11:22.732Z,99173.44
2018-03-18T06:13:50.251Z,99168.27
2018-03-18T06:16:17.711Z,99171.09
2018-03-18T06:18:45.171Z,99172.23
2018-03-18T06:21:12.659Z,99175.19
2018-03-18T06:23:40.115Z,99181.86
2018-03-18T06:26:07.615Z,99182.73
2018-03-18T06:28:35.092Z,99186.43
2018-03-18T06:31:02.600Z,99188.45
2018-03-18T06:33:30.070Z,99181.58
2018-03-18T06:35:57.567Z,99191.11
2018-03-18T06:38:25.033Z,99193.16
2018-03-18T06:40:52.523Z,99197.03
2018-03-18T06:43:19.995Z,99207.11
2018-03-18T06:45:47.483Z,99197.82
2018-03-18T06:48:14.975Z,99193.59
2018-03-18T06:50:42.490Z,99202.30
2018-03-18T06:53:09.946Z,99204.41
2018-03-18T06:55:37.411Z,99201.91
2018-03-18T06:58:04.905Z,99204.94
2018-03-18T07:00:33.495Z,99205.45
2018-03-18T07:03:00.984Z,99211.27
2018-03-18T07:05:28.454Z,99211.94
2018-03-18T07:07:55.941Z,99219.83
2018-03-18T07:10:23.399Z,99216.34
2018-03-18T07:12:50.954Z,99217.02
2018-03-18T07:15:18.375Z,99218.42
2018-03-18T07:17:45.867Z,99212.36
2018-03-18T07:20:13.331Z,99221.29
2018-03-18T07:22:40.838Z,99220.11
2018-03-18T07:25:08.311Z,99222.05
2018-03-18T07:27:35.799Z,99221.86
2018-03-18T07:30:03.269Z,99221.02
2018-03-18T07:32:30.764Z,99226.91
2018-03-18T07:34:58.224Z,99227.89
2018-03-18T07:37:25.748Z,99224.63
2018-03-18T07:39:53.206Z,99232.13
2018-03-18T07:42:20.663Z,99228.34
2018-03-18T07:44:48.151Z,99236.39
2018-03-18T07:47:15.685Z,99235.87
2018-03-18T07:49:43.143Z,99243.91
2018-03-18T07:52:10.604Z,99238.98
2018-03-18T07:54:38.132Z,99234.04
2018-03-18T07:57:05.600Z,99240.92
2018-03-18T07:59:33.089Z,99240.09
2018-03-18T08:02:00.574Z,99243.48
2018-03-18T08:04:28.070Z,99251.58
2018-03-18T08:06:55.531Z,99246.05
2018-03-18T08:09:23.027Z,99249.22
2018-03-18T08:11:50.493Z,99256.16
2018-03-18T08:14:18.054Z,99247.97
2018-03-18T08:16:45.511Z,99256.80
2018-03-18T08:19:12.984Z,99250.05
2018-03-18T08:21:40.484Z,99254.77
2018-03-18T08:24:08.888Z,99265.01
2018-03-18T08:26:36.383Z,99256.95
2018-03-18T08:29:03.864Z,99259.09
2018-03-18T08:31:31.356Z,99261.96
2018-03-18T08:33:58.819Z,99255.19
2018-03-18T08:36:26.307Z,99258.66
2018-03-18T08:38:53.771Z,99257.43
2018-03-18T08:41:21.306Z,99257.06
2018-03-18T08:43:48.735Z,99262.40
2018-03-18T08:46:16.219Z,99259.01
2018-03-18T08:48:43.689Z,99264.83
2018-03-18T08:51:11.200Z,99267.93
2018-03-18T08:53:38.668Z,99268.81
2018-03-18T08:56:06.158Z,99267.68
2018-03-18T08:58:33.681Z,99274.36
2018-03-18T09:01:01.223Z,99267.62
2018-03-18T09:03:28.708Z,99268.35
2018-03-18T09:05:56.175Z,99269.08
2018-03-18T09:08:23.667Z,99270.47
2018-03-18T09:10:51.132Z,99268.77
2018-03-18T09:13:18.607Z,99263.57
2018-03-18T09:15:46.070Z,99268.50
2018-03-18T09:18:13.566Z,99262.72
2018-03-18T09:20:41.090Z,99254.80
2018-03-18T09:23:08.568Z,99257.21
2018-03-18T09:25:36.027Z,99269.48
2018-03-18T09:28:03.510Z,99258.29
2018-03-18T09:30:30.995Z,99264.58
2018-03-18T09:32:58.496Z,99267.97
2018-03-18T09:35:25.956Z,99261.31
2018-03-18T09:37:53.411Z,99268.66
2018-03-18T09:40:20.886Z,99278.61
2018-03-18T09:42:48.339Z,99275.25
2018-03-18T09:45:15.831Z,99279.77
2018-03-18T09:47:43.305Z,99273.59
2018-03-18T09:50:10.818Z,99276.97
2018-03-18T09:52:38.283Z,99278.80
2018-03-18T09:55:05.768Z,99277.34
2018-03-18T09:57:33.238Z,99275.78
2018-03-18T10:00:00.738Z,99275.26
2018-03-18T10:02:28.213Z,99282.63
2018-03-18T10:04:55.727Z,99281.83
2018-03-18T10:07:23.187Z,99277.87
2018-03-18T10:09:50.666Z,99283.89
2018-03-18T10:12:18.160Z,99280.37
2018-03-18T10:14:45.607Z,99288.67
2018-03-18T10:17:13.091Z,99294.42
2018-03-18T10:19:40.547Z,99287.16
2018-03-18T10:22:08.043Z,99288.28
2018-03-18T10:24:35.527Z,99290.72
2018-03-18T10:27:03.010Z,99291.99
2018-03-18T10:29:30.481Z,99297.78
2018-03-18T10:31:57.985Z,99293.11
2018-03-18T10:34:25.512Z,99294.36
2018-03-18T10:36:53.036Z,99294.42
2018-03-18T10:39:20.499Z,99291.16
2018-03-18T10:41:47.989Z,99296.53
2018-03-18T10:44:15.450Z,99292.95
2018-03-18T10:46:42.945Z,99288.94
2018-03-18T10:49:10.406Z,99292.69
2018-03-18T10:51:37.863Z,99291.08
2018-03-18T10:54:16.397Z,99292.09
2018-03-18T10:59:23.148Z,99290.02
2018-03-18T11:01:55.558Z,99295.48
2018-03-18T11:04:23.048Z,99291.84
2018-03-18T11:06:50.518Z,99292.84
2018-03-18T11:09:18.017Z,99310.91
2018-03-18T11:11:45.462Z,99306.71
2018-03-18T11:14:12.956Z,99305.23
2018-03-18T11:16:40.455Z,99310.75
2018-03-18T11:19:07.946Z,99298.64
2018-03-18T11:21:35.403Z,99308.37
2018-03-18T11:24:02.884Z,99306.98
2018-03-18T11:26:30.336Z,99301.17
2018-03-18T11:28:57.817Z,99299.02
2018-03-18T11:31:25.273Z,99305.63
2018-03-18T11:33:52.762Z,99301.92
2018-03-18T11:36:20.236Z,99310.08
2018-03-18T11:38:47.748Z,99304.42
2018-03-18T11:41:15.443Z,99304.09
2018-03-18T11:43:43.139Z,99309.36
2018-03-18T11:46:10.643Z,99310.96
2018-03-18T11:48:38.183Z,99301.19
2018-03-18T11:51:05.663Z,99299.04
2018-03-18T11:53:33.124Z,99298.17
2018-03-18T11:56:00.638Z,99306.13
2018-03-18T11:58:28.106Z,99303.87
2018-03-18T12:00:55.590Z,99300.89
2018-03-18T12:03:23.043Z,99301.20
2018-03-18T12:05:50.536Z,99295.25
2018-03-18T12:08:30.558Z,99295.67
2018-03-18T12:10:58.062Z,99296.95
2018-03-18T12:13:26.099Z,99302.46
2018-03-18T12:15:53.680Z,99296.94
2018-03-18T12:18:21.166Z,99299.66
2018-03-18T12:20:49.527Z,99295.16
2018-03-18T12:23:16.999Z,99290.00
2018-03-18T12:25:44.448Z,99292.30
2018-03-18T12:28:11.928Z,99283.67
2018-03-18T12:30:39.375Z,99274.91
2018-03-18T12:33:06.847Z,99284.67
2018-03-18T12:35:45.883Z,99281.99
2018-03-18T12:38:13.363Z,99276.31
2018-03-18T12:40:51.547Z,99284.66
2018-03-18T12:43:27.665Z,99275.64
2018-03-18T12:45:55.116Z,99273.73
2018-03-18T12:48:22.614Z,99280.72
2018-03-18T12:50:50.080Z,99279.19
2018-03-18T12:53:17.559Z,99280.37
2018-03-18T12:55:45.026Z,99274.66
2018-03-18T12:58:13.656Z,99276.77
2018-03-18T13:00:41.113Z,99278.65
2018-03-18T13:03:08.665Z,99275.25
2018-03-18T13:05:36.135Z,99276.30
2018-03-18T13:08:03.624Z,99269.41
2018-03-18T13:10:31.110Z,99274.30
2018-03-18T13:12:58.563Z,99276.20
2018-03-18T13:15:26.060Z,99275.58
2018-03-18T13:17:53.531Z,99276.45
2018-03-18T13:20:21.008Z,99274.79
2018-03-18T13:22:48.456Z,99268.34
2018-03-18T13:25:15.948Z,99265.34
2018-03-18T13:27:43.400Z,99274.50
2018-03-18T13:30:10.897Z,99260.70
2018-03-18T13:32:38.360Z,99261.84
2018-03-18T13:35:05.813Z,99261.73
2018-03-18T13:37:33.297Z,99265.57
2018-03-18T13:40:00.752Z,99260.16
2018-03-18T13:42:28.248Z,99261.63
2018-03-18T13:44:55.769Z,99258.30
2018-03-18T13:47:23.257Z,99253.09
2018-03-18T13:49:50.707Z,99251.26
2018-03-18T13:52:18.216Z,99255.05
2018-03-18T13:54:45.708Z,99264.48
2018-03-18T13:57:13.198Z,99260.53
2018-03-18T13:59:41.099Z,99257.93
2018-03-18T14:02:09.856Z,99269.64
2018-03-18T14:04:37.369Z,99266.06
2018-03-18T14:07:04.867Z,99262.73
2018-03-18T14:09:32.327Z,99257.59
2018-03-18T14:11:59.783Z,99258.38
2018-03-18T14:14:27.266Z,99264.16
2018-03-18T14:16:56.734Z,99262.92
2018-03-18T14:19:24.465Z,99266.34
2018-03-18T14:21:51.941Z,99264.00
2018-03-18T14:24:19.421Z,99266.59
2018-03-18T14:26:46.885Z,99264.23
2018-03-18T14:29:14.363Z,99271.43
2018-03-18T14:31:41.819Z,99271.69
2018-03-18T14:34:09.296Z,99270.82
2018-03-18T14:36:36.767Z,99267.50
2018-03-18T14:39:04.249Z,99268.34
2018-03-18T14:41:31.715Z,99265.31
2018-03-18T14:44:01.133Z,99274.93
2018-03-18T14:46:28.591Z,99279.38
2018-03-18T14:48:56.062Z,99275.13
2018-03-18T14:51:23.547Z,99269.98
2018-03-18T14:53:51.003Z,99264.86
2018-03-18T14:56:18.548Z,99268.99
2018-03-18T14:58:46.471Z,99267.30
2018-03-18T15:01:13.993Z,99278.00
2018-03-18T15:03:41.476Z,99270.75
2018-03-18T15:06:08.963Z,99272.72
2018-03-18T15:08:36.423Z,99280.98
2018-03-18T15:11:03.909Z,99275.91
2018-03-18T15:13:31.371Z,99278.09
2018-03-18T15:15:58.827Z,99283.20
2018-03-18T15:18:26.299Z,99277.13
2018-03-18T15:20:53.759Z,99289.66
2018-03-18T15:23:21.267Z,99282.91
2018-03-18T15:25:48.728Z,99286.08
2018-03-18T15:28:16.202Z,99285.98
2018-03-18T15:30:43.665Z,99294.29
2018-03-18T15:33:11.152Z,99301.64
2018-03-18T15:35:38.606Z,99300.67
2018-03-18T15:38:06.083Z,99299.11
2018-03-18T15:40:33.531Z,99305.20
2018-03-18T15:43:01.019Z,99302.77
2018-03-18T15:45:28.484Z,99307.77
2018-03-18T15:47:55.957Z,99314.05
2018-03-18T15:50:23.481Z,99317.40
2018-03-18T15:52:51.023Z,99314.30
2018-03-18T15:55:18.519Z,99317.31
2018-03-18T15:57:45.978Z,99322.05
2018-03-18T16:00:13.464Z,99325.19
2018-03-18T16:02:41.051Z,99324.08
2018-03-18T16:05:08.526Z,99324.48
2018-03-18T16:07:36.122Z,99330.16
2018-03-18T16:10:03.609Z,99332.52
2018-03-18T16:12:31.100Z,99325.00
2018-03-18T16:14:58.583Z,99331.69
2018-03-18T16:17:26.039Z,99330.80
2018-03-18T16:19:53.524Z,99337.91
2018-03-18T16:22:20.979Z,99348.33
2018-03-18T16:24:48.475Z,99348.06
2018-03-18T16:27:15.940Z,99350.81
2018-03-18T16:29:55.280Z,99364.76
2018-03-18T16:32:22.735Z,99361.31
2018-03-18T16:34:50.208Z,99363.80
2018-03-18T16:37:20.663Z,99363.33
2018-03-18T16:39:48.127Z,99361.03
2018-03-18T16:42:16.191Z,99364.44
2018-03-18T16:44:43.694Z,99375.08
2018-03-18T16:47:11.188Z,99375.54
2018-03-18T16:49:43.701Z,99378.81
2018-03-18T16:52:11.220Z,99386.07
2018-03-18T16:54:39.074Z,99380.19
2018-03-18T16:57:06.598Z,99391.00
2018-03-18T16:59:34.063Z,99392.66
2018-03-18T17:02:01.544Z,99392.50
2018-03-18T17:04:29.000Z,99401.75
2018-03-18T17:06:56.500Z,99411.83
2018-03-18T17:09:23.988Z,99412.84
2018-03-18T17:11:51.479Z,99423.94
2018-03-18T17:14:18.990Z,99415.54
2018-03-18T17:16:47.063Z,99423.16
2018-03-18T17:19:14.519Z,99422.66
2018-03-18T17:21:41.977Z,99424.81
2018-03-18T17:24:10.316Z,99424.94
2018-03-18T17:26:37.778Z,99436.23
2018-03-18T17:29:05.293Z,99431.80
2018-03-18T17:31:32.763Z,99440.03
2018-03-18T17:34:00.280Z,99443.42
2018-03-18T17:36:27.735Z,99443.34
2018-03-18T17:38:55.206Z,99451.27
2018-03-18T17:41:22.659Z,99460.39
2018-03-18T17:43:50.168Z,99460.70
2018-03-18T17:46:29.307Z,99459.59
2018-03-18T17:49:08.542Z,99468.41
2018-03-18T17:51:47.597Z,99463.91
2018-03-18T17:54:26.947Z,99462.45
2018-03-18T17:56:54.399Z,99473.75
2018-03-18T17:59:21.883Z,99478.99
2018-03-18T18:01:49.387Z,99469.23
2018-03-18T18:04:16.883Z,99472.01
2018-03-18T18:06:44.343Z,99485.45
2018-03-18T18:09:11.850Z,99476.43
2018-03-18T18:11:39.324Z,99489.98
2018-03-18T18:14:06.775Z,99491.63
2018-03-18T18:16:34.281Z,99482.59
2018-03-18T18:19:01.739Z,99500.55
2018-03-18T18:21:29.256Z,99503.19
2018-03-18T18:23:56.711Z,99502.16
2018-03-18T18:26:24.231Z,99512.21
2018-03-18T18:28:51.712Z,99504.52
2018-03-18T18:31:19.205Z,99518.17
2018-03-18T18:33:46.659Z,99518.98
2018-03-18T18:36:14.148Z,99515.30
2018-03-18T18:38:41.621Z,99522.88
2018-03-18T18:41:09.126Z,99520.11
2018-03-18T18:43:36.603Z,99523.19
2018-03-18T18:46:04.078Z,99517.98
2018-03-18T18:48:31.567Z,99525.04
2018-03-18T18:50:59.023Z,99519.92
2018-03-18T18:53:26.532Z,99529.58
2018-03-18T18:55:54.000Z,99518.38
2018-03-18T18:58:21.478Z,99522.36
2018-03-18T19:00:48.933Z,99522.07
2018-03-18T19:03:16.436Z,99535.93
2018-03-18T19:05:43.886Z,99533.03
2018-03-18T19:08:11.388Z,99537.44
2018-03-18T19:10:38.853Z,99536.32
2018-03-18T19:13:06.314Z,99535.81
2018-03-18T19:15:33.792Z,99540.02
2018-03-18T19:18:01.273Z,99539.91
2018-03-18T19:20:28.746Z,99543.90
2018-03-18T19:22:56.203Z,99550.25
2018-03-18T19:25:23.692Z,99548.11
2018-03-18T19:27:51.155Z,99545.53
2018-03-18T19:30:18.683Z,99544.31
2018-03-18T19:32:46.152Z,99543.07
2018-03-18T19:35:13.687Z,99547.07
2018-03-18T19:37:41.157Z,99545.20
2018-03-18T19:40:08.652Z,99543.77
2018-03-18T19:42:36.131Z,99555.98
2018-03-18T19:45:03.698Z,99551.08
2018-03-18T19:47:31.180Z,99557.22
2018-03-18T19:50:01.267Z,99560.00
2018-03-18T19:52:28.737Z,99555.77
2018-03-18T19:54:56.204Z,99554.03
2018-03-18T19:57:23.701Z,99551.16
2018-03-18T19:59:51.176Z,99555.97
2018-03-18T20:02:18.676Z,99550.34
2018-03-18T20:04:46.126Z,99556.39
2018-03-18T20:07:13.612Z,99551.13
2018-03-18T20:09:41.088Z,99565.17
2018-03-18T20:12:08.875Z,99566.94
2018-03-18T20:14:36.345Z,99563.01
2018-03-18T20:17:03.826Z,99565.88
2018-03-18T20:19:31.315Z,99557.70
2018-03-18T20:21:58.805Z,99567.84
2018-03-18T20:24:27.271Z,99567.52
2018-03-18T20:26:54.834Z,99566.92
2018-03-18T20:29:22.552Z,99563.52
2018-03-18T20:31:50.139Z,99555.11
2018-03-18T20:34:17.602Z,99553.67
2018-03-18T20:36:45.088Z,99561.47
2018-03-18T20:39:12.620Z,99554.19
2018-03-18T20:41:40.145Z,99559.82
2018-03-18T20:44:07.662Z,99552.75
2018-03-18T20:46:35.143Z,99558.49
2018-03-18T20:49:02.658Z,99567.91
2018-03-18T20:51:30.188Z,99566.73
2018-03-18T20:53:58.563Z,99558.53
2018-03-18T20:56:26.055Z,99563.98
2018-03-18T20:58:55.644Z,99571.23
2018-03-18T21:01:23.157Z,99570.62
2018-03-18T21:03:51.005Z,99578.41
2018-03-18T21:06:18.956Z,99579.11
2018-03-18T21:08:46.498Z,99571.63
2018-03-18T21:11:13.985Z,99581.95
2018-03-18T21:13:41.506Z,99582.70
2018-03-18T21:16:09.002Z,99580.95
2018-03-18T21:18:36.527Z,99576.24
2018-03-18T21:21:03.992Z,99584.77
2018-03-18T21:23:31.494Z,99582.48
2018-03-18T21:25:58.980Z,99585.56
2018-03-18T21:28:26.562Z,99592.73
2018-03-18T21:30:54.116Z,99599.98
2018-03-18T21:33:21.635Z,99595.16
2018-03-18T21:35:49.143Z,99594.54
2018-03-18T21:38:16.675Z,99594.09
2018-03-18T21:40:44.154Z,99592.29
2018-03-18T21:43:11.657Z,99595.16
2018-03-18T21:45:39.240Z,99597.83
2018-03-18T21:48:06.803Z,99592.25
2018-03-18T21:50:34.356Z,99599.00
2018-03-18T21:53:01.905Z,99598.34
2018-03-18T21:55:29.477Z,99596.89
2018-03-18T21:57:57.937Z,99598.05
2018-03-18T22:00:25.556Z,99592.10
2018-03-18T22:02:53.076Z,99591.81
2018-03-18T22:05:20.720Z,99592.39
2018-03-18T22:07:48.245Z,99584.61
2018-03-18T22:10:15.816Z,99596.19
2018-03-18T22:12:43.381Z,99591.95
2018-03-18T22:15:10.985Z,99594.11
2018-03-18T22:17:38.523Z,99594.81
2018-03-18T22:20:06.092Z,99595.39
2018-03-18T22:22:33.656Z,99596.94
2018-03-18T22:25:01.235Z,99590.70
2018-03-18T22:27:28.784Z,99593.48
2018-03-18T22:29:56.344Z,99588.63
2018-03-18T22:32:23.905Z,99590.28
2018-03-18T22:34:51.440Z,99588.00
2018-03-18T22:37:19.000Z,99587.99
2018-03-18T22:39:46.535Z,99590.00
2018-03-18T22:42:14.660Z,99592.04
2018-03-18T22:44:42.196Z,99595.73
2018-03-18T22:47:09.777Z,99597.89
2018-03-18T22:49:37.332Z,99596.53
2018-03-18T22:52:04.973Z,99589.67
2018-03-18T22:54:32.523Z,99595.03
2018-03-18T22:57:00.050Z,99590.12
2018-03-18T22:59:27.633Z,99592.57
2018-03-18T23:01:55.153Z,99586.12
2018-03-18T23:04:22.704Z,99585.83
2018-03-18T23:06:50.229Z,99584.97
2018-03-18T23:09:17.720Z,99588.96
2018-03-18T23:11:45.187Z,99582.96
2018-03-18T23:14:12.665Z,99590.20
2018-03-18T23:16:40.128Z,99585.27
2018-03-18T23:19:07.623Z,99589.66
2018-03-18T23:21:35.075Z,99584.17
2018-03-18T23:24:02.592Z,99583.50
2018-03-18T23:26:30.042Z,99582.64
2018-03-18T23:28:57.519Z,99578.84
2018-03-18T23:31:24.981Z,99578.64
2018-03-18T23:33:52.498Z,99579.97
2018-03-18T23:36:19.958Z,99578.52
2018-03-18T23:38:47.420Z,99575.56
2018-03-18T23:41:14.906Z,99568.91
2018-03-18T23:43:42.365Z,99578.23
2018-03-18T23:46:09.863Z,99574.27
2018-03-18T23:48:37.322Z,99567.78
2018-03-18T23:51:04.815Z,99570.91
2018-03-18T23:53:32.267Z,99560.34
2018-03-18T23:55:59.749Z,99562.30
2018-03-18T23:58:27.207Z,99565.70
